sensor_id;sensor_type;location;lat;lon;timestamp;pressure;altitude;pressure_sealevel;temperature;humidity
48644;BME280;34928;37.302;-121.984;2022-12-29T00:07:22;100839.0;;;21.37;28.19
48644;BME280;34928;37.302;-121.984;2022-12-29T00:17:27;100834.0;;;21.42;28.08
48644;BME280;34928;37.302;-121.984;2022-12-29T00:27:34;100858.0;;;21.38;28.12
48644;BME280;34928;37.302;-121.984;2022-12-29T00:37:39;100837.0;;;21.51;28.07
48644;BME280;34928;37.302;-121.984;2022-12-29T00:47:47;100835.0;;;21.46;27.94
48644;BME280;34928;37.302;-121.984;2022-12-29T00:57:52;100854.0;;;21.53;27.85
48644;BME280;34928;37.302;-121.984;2022-12-29T01:07:57;100871.0;;;21.44;27.90
48644;BME280;34928;37.302;-121.984;2022-12-29T01:18:07;100870.0;;;21.42;27.86
48644;BME280;34928;37.302;-121.984;2022-12-29T01:28:12;100845.0;;;21.36;27.89
48644;BME280;34928;37.302;-121.984;2022-12-29T01:38:17;100793.0;;;21.44;27.79
48644;BME280;34928;37.302;-121.984;2022-12-29T01:48:23;100798.0;;;21.47;27.80
48644;BME280;34928;37.302;-121.984;2022-12-29T01:58:30;100814.0;;;21.53;27.69
48644;BME280;34928;37.302;-121.984;2022-12-29T02:08:38;100775.0;;;21.48;27.74
48644;BME280;34928;37.302;-121.984;2022-12-29T02:18:55;100769.0;;;21.47;27.76
48644;BME280;34928;37.302;-121.984;2022-12-29T02:39:31;100756.0;;;21.47;27.68
48644;BME280;34928;37.302;-121.984;2022-12-29T02:49:42;100762.0;;;21.50;27.73
48644;BME280;34928;37.302;-121.984;2022-12-29T02:59:56;100763.0;;;21.49;27.74
48644;BME280;34928;37.302;-121.984;2022-12-29T03:10:09;100772.0;;;21.23;27.67
48644;BME280;34928;37.302;-121.984;2022-12-29T03:20:23;100768.0;;;21.46;27.74
48644;BME280;34928;37.302;-121.984;2022-12-29T03:30:30;100776.0;;;21.47;27.82
48644;BME280;34928;37.302;-121.984;2022-12-29T03:40:40;100757.0;;;21.37;27.72
48644;BME280;34928;37.302;-121.984;2022-12-29T03:50:48;100755.0;;;21.18;27.63
48644;BME280;34928;37.302;-121.984;2022-12-29T04:00:52;100714.0;;;21.41;27.68
48644;BME280;34928;37.302;-121.984;2022-12-29T04:10:58;100766.0;;;21.40;27.66
48644;BME280;34928;37.302;-121.984;2022-12-29T04:21:02;100812.0;;;21.38;27.67
48644;BME280;34928;37.302;-121.984;2022-12-29T04:31:07;100836.0;;;21.29;27.67
48644;BME280;34928;37.302;-121.984;2022-12-29T04:41:12;100817.0;;;21.32;27.68
48644;BME280;34928;37.302;-121.984;2022-12-29T04:51:17;100802.0;;;21.21;27.80
48644;BME280;34928;37.302;-121.984;2022-12-29T05:01:22;100782.0;;;21.18;27.80
48644;BME280;34928;37.302;-121.984;2022-12-29T05:11:27;100751.0;;;21.21;27.74
48644;BME280;34928;37.302;-121.984;2022-12-29T05:21:32;100736.0;;;21.16;27.78
48644;BME280;34928;37.302;-121.984;2022-12-29T05:31:37;100755.0;;;21.21;27.76
48644;BME280;34928;37.302;-121.984;2022-12-29T05:41:42;100755.0;;;21.21;27.73
48644;BME280;34928;37.302;-121.984;2022-12-29T05:51:47;100736.0;;;21.22;27.74
48644;BME280;34928;37.302;-121.984;2022-12-29T06:01:52;100717.0;;;21.26;27.67
48644;BME280;34928;37.302;-121.984;2022-12-29T06:11:57;100719.0;;;21.23;27.63
48644;BME280;34928;37.302;-121.984;2022-12-29T06:22:02;100717.0;;;21.18;27.69
48644;BME280;34928;37.302;-121.984;2022-12-29T06:32:08;100698.0;;;21.32;27.53
48644;BME280;34928;37.302;-121.984;2022-12-29T06:42:12;100667.0;;;21.18;27.71
48644;BME280;34928;37.302;-121.984;2022-12-29T06:52:17;100662.0;;;21.20;27.65
48644;BME280;34928;37.302;-121.984;2022-12-29T07:02:22;100683.0;;;21.24;27.63
48644;BME280;34928;37.302;-121.984;2022-12-29T07:12:27;100638.0;;;21.11;27.82
48644;BME280;34928;37.302;-121.984;2022-12-29T07:22:33;100627.0;;;21.12;27.82
48644;BME280;34928;37.302;-121.984;2022-12-29T07:32:37;100611.0;;;21.21;27.65
48644;BME280;34928;37.302;-121.984;2022-12-29T07:42:42;100582.0;;;21.02;27.84
48644;BME280;34928;37.302;-121.984;2022-12-29T07:52:48;100625.0;;;21.07;27.76
48644;BME280;34928;37.302;-121.984;2022-12-29T08:02:52;100646.0;;;21.07;27.83
48644;BME280;34928;37.302;-121.984;2022-12-29T08:12:58;100665.0;;;21.11;27.78
48644;BME280;34928;37.302;-121.984;2022-12-29T08:23:02;100700.0;;;21.09;27.78
48644;BME280;34928;37.302;-121.984;2022-12-29T08:33:07;100679.0;;;21.22;27.61
48644;BME280;34928;37.302;-121.984;2022-12-29T08:43:13;100579.0;;;21.20;27.61
48644;BME280;34928;37.302;-121.984;2022-12-29T08:53:18;100587.0;;;20.91;27.69
48644;BME280;34928;37.302;-121.984;2022-12-29T09:03:22;100642.0;;;21.23;27.55
48644;BME280;34928;37.302;-121.984;2022-12-29T09:13:28;100628.0;;;21.30;27.54
48644;BME280;34928;37.302;-121.984;2022-12-29T09:23:32;100624.0;;;21.28;27.58
48644;BME280;34928;37.302;-121.984;2022-12-29T09:33:37;100611.0;;;21.23;27.64
48644;BME280;34928;37.302;-121.984;2022-12-29T09:43:59;100647.0;;;21.27;27.59
48644;BME280;34928;37.302;-121.984;2022-12-29T09:54:23;100615.0;;;21.23;27.61
48644;BME280;34928;37.302;-121.984;2022-12-29T10:04:28;100593.0;;;21.61;27.79
48644;BME280;34928;37.302;-121.984;2022-12-29T10:14:44;100580.0;;;21.49;27.63
48644;BME280;34928;37.302;-121.984;2022-12-29T10:24:54;100549.0;;;21.13;27.73
48644;BME280;34928;37.302;-121.984;2022-12-29T10:35:00;100542.0;;;21.10;27.72
48644;BME280;34928;37.302;-121.984;2022-12-29T10:45:13;100580.0;;;21.15;27.59
48644;BME280;34928;37.302;-121.984;2022-12-29T10:55:21;100602.0;;;21.49;27.83
48644;BME280;34928;37.302;-121.984;2022-12-29T11:05:32;100578.0;;;21.02;27.74
48644;BME280;34928;37.302;-121.984;2022-12-29T11:15:42;100614.0;;;21.02;27.74
48644;BME280;34928;37.302;-121.984;2022-12-29T11:36:16;100619.0;;;21.06;27.75
48644;BME280;34928;37.302;-121.984;2022-12-29T11:46:26;100633.0;;;21.29;27.68
48644;BME280;34928;37.302;-121.984;2022-12-29T11:56:35;100611.0;;;21.05;27.71
48644;BME280;34928;37.302;-121.984;2022-12-29T12:06:47;100614.0;;;21.08;27.71
48644;BME280;34928;37.302;-121.984;2022-12-29T12:16:55;100628.0;;;21.08;27.71
48644;BME280;34928;37.302;-121.984;2022-12-29T12:27:08;100603.0;;;21.05;27.78
48644;BME280;34928;37.302;-121.984;2022-12-29T12:47:53;100621.0;;;21.25;27.88
48644;BME280;34928;37.302;-121.984;2022-12-29T12:58:09;100579.0;;;21.17;27.98
48644;BME280;34928;37.302;-121.984;2022-12-29T13:08:30;100545.0;;;20.99;27.89
48644;BME280;34928;37.302;-121.984;2022-12-29T13:18:44;100520.0;;;21.01;27.81
48644;BME280;34928;37.302;-121.984;2022-12-29T13:28:57;100494.0;;;21.01;27.84
48644;BME280;34928;37.302;-121.984;2022-12-29T13:39:08;100491.0;;;21.26;27.81
48644;BME280;34928;37.302;-121.984;2022-12-29T13:49:20;100462.0;;;20.99;27.84
48644;BME280;34928;37.302;-121.984;2022-12-29T13:59:37;100500.0;;;20.92;27.84
48644;BME280;34928;37.302;-121.984;2022-12-29T14:09:46;100479.0;;;20.83;27.93
48644;BME280;34928;37.302;-121.984;2022-12-29T14:19:54;100511.0;;;20.92;27.80
48644;BME280;34928;37.302;-121.984;2022-12-29T14:29:57;100467.0;;;20.87;27.81
48644;BME280;34928;37.302;-121.984;2022-12-29T14:40:06;100441.0;;;20.86;27.79
48644;BME280;34928;37.302;-121.984;2022-12-29T14:50:19;100470.0;;;21.00;27.94
48644;BME280;34928;37.302;-121.984;2022-12-29T15:00:30;100445.0;;;21.15;27.71
48644;BME280;34928;37.302;-121.984;2022-12-29T15:10:42;100467.0;;;21.30;27.85
48644;BME280;34928;37.302;-121.984;2022-12-29T15:20:51;100509.0;;;21.08;27.88
48644;BME280;34928;37.302;-121.984;2022-12-29T15:31:03;100469.0;;;20.78;27.89
48644;BME280;34928;37.302;-121.984;2022-12-29T15:41:23;100438.0;;;20.65;28.02
48644;BME280;34928;37.302;-121.984;2022-12-29T15:51:31;100463.0;;;20.72;27.93
48644;BME280;34928;37.302;-121.984;2022-12-29T16:01:37;100461.0;;;20.81;27.89
48644;BME280;34928;37.302;-121.984;2022-12-29T16:11:45;100484.0;;;21.12;28.03
48644;BME280;34928;37.302;-121.984;2022-12-29T16:21:53;100504.0;;;20.58;28.10
48644;BME280;34928;37.302;-121.984;2022-12-29T16:31:58;100477.0;;;20.54;28.06
48644;BME280;34928;37.302;-121.984;2022-12-29T16:52:28;100510.0;;;20.37;28.37
48644;BME280;34928;37.302;-121.984;2022-12-29T17:02:38;100531.0;;;20.54;28.16
48644;BME280;34928;37.302;-121.984;2022-12-29T17:12:44;100523.0;;;20.85;28.01
48644;BME280;34928;37.302;-121.984;2022-12-29T17:22:48;100577.0;;;21.12;28.03
48644;BME280;34928;37.302;-121.984;2022-12-29T17:32:55;100595.0;;;20.82;28.03
48644;BME280;34928;37.302;-121.984;2022-12-29T17:43:02;100599.0;;;21.02;28.11
48644;BME280;34928;37.302;-121.984;2022-12-29T17:53:12;100617.0;;;20.57;28.20
48644;BME280;34928;37.302;-121.984;2022-12-29T18:03:18;100642.0;;;21.09;28.13
48644;BME280;34928;37.302;-121.984;2022-12-29T18:13:24;100655.0;;;20.65;28.15
48644;BME280;34928;37.302;-121.984;2022-12-29T18:23:29;100674.0;;;20.97;28.12
48644;BME280;34928;37.302;-121.984;2022-12-29T18:33:32;100671.0;;;20.99;28.07
48644;BME280;34928;37.302;-121.984;2022-12-29T18:43:37;100677.0;;;21.11;28.00
48644;BME280;34928;37.302;-121.984;2022-12-29T18:53:43;100671.0;;;21.38;27.94
48644;BME280;34928;37.302;-121.984;2022-12-29T19:03:47;100642.0;;;21.12;28.03
48644;BME280;34928;37.302;-121.984;2022-12-29T19:13:53;100623.0;;;20.93;28.08
48644;BME280;34928;37.302;-121.984;2022-12-29T19:23:57;100630.0;;;20.98;28.11
48644;BME280;34928;37.302;-121.984;2022-12-29T19:34:02;100627.0;;;21.56;28.05
48644;BME280;34928;37.302;-121.984;2022-12-29T19:44:07;100634.0;;;21.07;28.05
48644;BME280;34928;37.302;-121.984;2022-12-29T19:54:12;100617.0;;;21.09;28.05
48644;BME280;34928;37.302;-121.984;2022-12-29T20:04:17;100605.0;;;21.45;28.04
48644;BME280;34928;37.302;-121.984;2022-12-29T20:14:22;100620.0;;;21.13;28.09
48644;BME280;34928;37.302;-121.984;2022-12-29T20:24:28;100616.0;;;21.16;28.13
48644;BME280;34928;37.302;-121.984;2022-12-29T20:34:32;100618.0;;;21.19;28.12
48644;BME280;34928;37.302;-121.984;2022-12-29T20:44:38;100628.0;;;21.23;28.11
48644;BME280;34928;37.302;-121.984;2022-12-29T20:54:42;100645.0;;;21.28;28.20
48644;BME280;34928;37.302;-121.984;2022-12-29T21:04:48;100643.0;;;21.28;28.24
48644;BME280;34928;37.302;-121.984;2022-12-29T21:14:52;100621.0;;;21.27;28.33
48644;BME280;34928;37.302;-121.984;2022-12-29T21:24:57;100607.0;;;21.27;28.41
48644;BME280;34928;37.302;-121.984;2022-12-29T21:35:02;100591.0;;;21.36;28.31
48644;BME280;34928;37.302;-121.984;2022-12-29T21:45:09;100602.0;;;21.41;28.41
48644;BME280;34928;37.302;-121.984;2022-12-29T21:55:13;100599.0;;;21.44;28.32
48644;BME280;34928;37.302;-121.984;2022-12-29T22:05:17;100597.0;;;21.44;28.40
48644;BME280;34928;37.302;-121.984;2022-12-29T22:15:22;100619.0;;;21.50;28.50
48644;BME280;34928;37.302;-121.984;2022-12-29T22:25:27;100609.0;;;21.50;28.57
48644;BME280;34928;37.302;-121.984;2022-12-29T22:35:33;100616.0;;;21.55;28.46
48644;BME280;34928;37.302;-121.984;2022-12-29T22:45:38;100588.0;;;21.52;28.54
48644;BME280;34928;37.302;-121.984;2022-12-29T22:55:42;100603.0;;;21.30;28.67
48644;BME280;34928;37.302;-121.984;2022-12-29T23:05:55;100608.0;;;21.52;28.67
48644;BME280;34928;37.302;-121.984;2022-12-29T23:16:02;100607.0;;;21.61;28.52
48644;BME280;34928;37.302;-121.984;2022-12-29T23:26:07;100628.0;;;21.65;28.62
48644;BME280;34928;37.302;-121.984;2022-12-29T23:36:13;100636.0;;;21.68;28.60
48644;BME280;34928;37.302;-121.984;2022-12-29T23:46:19;100657.0;;;21.66;28.66
48644;BME280;34928;37.302;-121.984;2022-12-29T23:56:23;100652.0;;;21.65;28.48
